Time;durP1;ratioP1;P1;durP2;ratioP2;P2;SDS_P1;SDS_P2;PMS_P1;PMS_P2;Temp;Humidity;BMP_temperature;BMP_pressure;BME280_temperature;BME280_humidity;BME280_pressure;Samples;Min_cycle;Max_cycle;Signal;HPM_P1;HPM_P2
2023/05/04 00:00:06;;;;;;;336.25;129.73;;;;;;;11.78;100.00;99875.25;328785;29;1766;-76
2023/05/04 00:00:17;;;;;;;332.92;126.90;;;;;;;11.79;100.00;99876.97;326384;29;1910;-76
2023/05/04 00:00:28;;;;;;;331.30;125.35;;;;;;;11.73;100.00;99871.94;328267;29;2477;-76
2023/05/04 00:00:38;;;;;;;333.30;127.10;;;;;;;11.68;100.00;99869.53;328045;30;862;-76
2023/05/04 00:00:49;;;;;;;334.10;128.00;;;;;;;11.70;100.00;99872.94;327370;30;2453;-76
2023/05/04 00:00:59;;;;;;;336.50;128.10;;;;;;;11.70;100.00;99872.09;327868;30;2757;-76
2023/05/04 00:01:10;;;;;;;338.33;128.55;;;;;;;11.71;100.00;99869.38;325496;30;1509;-76
2023/05/04 00:01:21;;;;;;;339.13;130.07;;;;;;;11.71;100.00;99873.78;324213;30;2791;-76
2023/05/04 00:01:31;;;;;;;339.23;131.37;;;;;;;11.68;100.00;99873.94;324734;30;1936;-76
2023/05/04 00:01:42;;;;;;;333.35;129.13;;;;;;;11.68;100.00;99873.94;324898;30;1388;-77
2023/05/04 00:01:52;;;;;;;334.77;135.73;;;;;;;11.68;100.00;99868.69;317607;30;2210;-76
2023/05/04 00:02:03;;;;;;;336.60;136.27;;;;;;;11.72;100.00;99870.25;321059;30;2098;-76
2023/05/04 00:02:13;;;;;;;338.55;135.63;;;;;;;11.72;100.00;99875.47;317068;30;2429;-76
2023/05/04 00:02:23;;;;;;;334.37;130.33;;;;;;;11.72;100.00;99871.09;318453;31;1379;-76
2023/05/04 00:02:34;;;;;;;332.77;129.47;;;;;;;11.75;100.00;99875.34;317105;30;2978;-76
2023/05/04 00:02:44;;;;;;;331.77;129.23;;;;;;;11.77;100.00;99874.41;314344;31;3212;-76
2023/05/04 00:02:55;;;;;;;335.90;128.23;;;;;;;11.81;100.00;99875.13;311793;31;831;-76
2023/05/04 00:03:05;;;;;;;337.27;129.73;;;;;;;11.83;100.00;99873.31;318495;30;3371;-76
2023/05/04 00:03:16;;;;;;;339.48;130.45;;;;;;;11.84;100.00;99881.13;315967;31;3556;-76
2023/05/04 00:03:26;;;;;;;336.53;131.37;;;;;;;11.80;100.00;99883.91;315068;31;1332;-75
2023/05/04 00:03:37;;;;;;;335.15;129.98;;;;;;;11.73;100.00;99871.94;314302;31;3482;-76
2023/05/04 00:03:47;;;;;;;336.23;130.67;;;;;;;11.66;100.00;99877.47;314113;31;2463;-76
2023/05/04 00:03:58;;;;;;;335.67;129.15;;;;;;;11.59;100.00;99875.16;311059;31;2099;-76
2023/05/04 00:04:08;;;;;;;338.10;129.20;;;;;;;11.56;100.00;99881.38;308454;32;1584;-76
2023/05/04 00:04:19;;;;;;;337.02;127.78;;;;;;;11.54;100.00;99877.97;308531;31;2980;-76
2023/05/04 00:04:29;;;;;;;338.23;128.17;;;;;;;11.56;100.00;99875.28;309195;31;3426;-76
2023/05/04 00:04:41;;;;;;;338.00;129.07;;;;;;;11.58;100.00;99879.56;307953;32;1631;-75
2023/05/04 00:04:52;;;;;;;338.40;130.55;;;;;;;11.58;100.00;99874.31;301877;32;3903;-77
2023/05/04 00:05:04;;;;;;;338.27;129.40;;;;;;;11.54;100.00;99872.72;301856;32;4341;-76
2023/05/04 00:05:15;;;;;;;338.40;127.90;;;;;;;11.55;100.00;99873.56;305855;32;4714;-75
2023/05/04 00:05:25;;;;;;;336.67;127.97;;;;;;;11.60;100.00;99876.88;303070;32;1443;-76
2023/05/04 00:05:36;;;;;;;334.10;129.70;;;;;;;11.64;100.00;99875.81;304600;32;4563;-75
2023/05/04 00:05:46;;;;;;;332.57;128.83;;;;;;;11.68;100.00;99881.81;302155;32;4951;-76
2023/05/04 00:05:56;;;;;;;336.52;129.23;;;;;;;11.69;100.00;99884.38;303235;32;876;-76
2023/05/04 00:06:07;;;;;;;338.73;128.97;;;;;;;11.69;100.00;99871.25;304414;32;3415;-76
2023/05/04 00:06:17;;;;;;;337.20;128.55;;;;;;;11.70;100.00;99878.16;300428;32;3319;-76
2023/05/04 00:06:28;;;;;;;334.30;128.33;;;;;;;11.69;100.00;99866.00;297252;32;4509;-76
2023/05/04 00:06:38;;;;;;;333.80;129.10;;;;;;;11.76;100.00;99877.06;299071;33;1330;-76
2023/05/04 00:06:49;;;;;;;335.67;130.87;;;;;;;11.77;100.00;99873.56;298229;32;5524;-75
2023/05/04 00:06:59;;;;;;;336.10;131.25;;;;;;;11.82;100.00;99868.97;295943;33;5603;-76
2023/05/04 00:07:10;;;;;;;335.87;131.70;;;;;;;11.87;100.00;99872.25;296874;33;1240;-76
2023/05/04 00:07:20;;;;;;;333.70;130.02;;;;;;;11.90;100.00;99874.75;292310;33;5702;-77
2023/05/04 00:07:31;;;;;;;334.90;129.93;;;;;;;11.89;100.00;99875.69;291168;33;6409;-76
2023/05/04 00:07:41;;;;;;;334.87;129.83;;;;;;;11.88;100.00;99874.81;296088;33;914;-77
2023/05/04 00:07:51;;;;;;;337.87;133.00;;;;;;;11.89;100.00;99871.28;297600;33;6175;-76
2023/05/04 00:08:02;;;;;;;334.48;131.27;;;;;;;11.90;100.00;99869.50;295280;33;6521;-76
2023/05/04 00:08:12;;;;;;;333.83;131.87;;;;;;;11.89;100.00;99873.06;295240;33;1029;-76
2023/05/04 00:08:23;;;;;;;335.55;131.93;;;;;;;11.92;100.00;99867.69;290827;34;1096;-76
2023/05/04 00:08:33;;;;;;;337.70;135.33;;;;;;;11.97;100.00;99865.72;288435;33;6539;-76
2023/05/04 00:08:43;;;;;;;338.73;134.77;;;;;;;11.99;100.00;99874.38;285357;34;6305;-76
2023/05/04 00:08:54;;;;;;;336.40;134.43;;;;;;;11.99;100.00;99869.97;286268;34;1236;-76
2023/05/04 00:09:05;;;;;;;336.23;134.00;;;;;;;12.01;100.00;99872.53;283748;34;8220;-76
2023/05/04 00:09:16;;;;;;;337.65;135.65;;;;;;;12.05;100.00;99873.25;279783;34;8264;-76
2023/05/04 00:09:27;;;;;;;341.42;136.70;;;;;;;12.05;100.00;99874.13;278228;35;807;-76
2023/05/04 00:09:37;;;;;;;342.10;135.70;;;;;;;12.05;100.00;99879.38;276813;35;8418;-77
2023/05/04 00:09:49;;;;;;;336.23;133.30;;;;;;;12.03;100.00;99868.09;276689;35;9411;-76
2023/05/04 00:10:00;;;;;;;332.58;135.30;;;;;;;12.06;100.00;99869.72;274996;35;8034;-77
2023/05/04 00:10:10;;;;;;;334.70;136.20;;;;;;;12.07;100.00;99867.03;275553;35;1403;-77
2023/05/04 00:10:21;;;;;;;340.20;137.38;;;;;;;12.00;100.00;99870.84;273764;35;7742;-76
2023/05/04 00:12:06;;;;;;;327.17;122.62;;;;;;;11.73;100.00;99866.69;2501875;27;20676;-75
2023/05/04 00:12:17;;;;;;;334.38;130.02;;;;;;;11.73;100.00;99867.56;352925;28;1503;-75
2023/05/04 00:12:27;;;;;;;334.83;132.33;;;;;;;11.71;100.00;99863.28;350257;28;1278;-75
2023/05/04 00:12:38;;;;;;;334.65;132.10;;;;;;;11.81;100.00;99867.28;349055;28;789;-77
2023/05/04 00:12:48;;;;;;;335.50;131.90;;;;;;;11.79;100.00;99861.25;347458;28;884;-76
2023/05/04 00:12:58;;;;;;;335.92;130.38;;;;;;;11.74;100.00;99864.03;348989;28;863;-75
2023/05/04 00:13:09;;;;;;;337.70;130.20;;;;;;;11.78;100.00;99860.38;348767;28;945;-76
2023/05/04 00:13:19;;;;;;;335.55;131.18;;;;;;;11.79;100.00;99863.88;348517;28;1593;-76
2023/05/04 00:13:30;;;;;;;338.37;133.70;;;;;;;11.79;100.00;99862.09;349171;28;1250;-77
2023/05/04 00:13:40;;;;;;;337.20;133.13;;;;;;;11.79;100.00;99866.50;347819;28;959;-75
2023/05/04 00:13:51;;;;;;;338.93;132.07;;;;;;;11.75;100.00;99865.72;348711;28;1114;-75
2023/05/04 00:14:01;;;;;;;338.48;132.00;;;;;;;11.78;100.00;99864.78;348864;28;896;-75
2023/05/04 00:14:12;;;;;;;339.17;132.73;;;;;;;11.80;100.00;99863.81;347338;28;1402;-76
2023/05/04 00:14:22;;;;;;;334.55;128.82;;;;;;;11.82;100.00;99855.88;348940;28;887;-76
2023/05/04 00:14:32;;;;;;;333.50;127.93;;;;;;;11.85;100.00;99866.22;350044;28;958;-76
2023/05/04 00:14:43;;;;;;;332.97;127.10;;;;;;;11.80;100.00;99863.81;350308;28;1303;-76
2023/05/04 00:14:53;;;;;;;335.90;129.13;;;;;;;11.82;100.00;99861.13;348702;28;1178;-77
2023/05/04 00:15:04;;;;;;;335.90;129.17;;;;;;;11.81;100.00;99864.66;347289;28;1435;-76
2023/05/04 00:15:15;;;;;;;336.33;129.98;;;;;;;11.76;100.00;99851.69;348750;28;968;-76
2023/05/04 00:15:26;;;;;;;334.80;130.73;;;;;;;11.75;100.00;99864.88;351502;28;1250;-76
2023/05/04 00:15:37;;;;;;;334.55;130.70;;;;;;;11.74;100.00;99857.91;350106;28;1473;-75
2023/05/04 00:15:47;;;;;;;335.53;130.60;;;;;;;11.78;100.00;99859.53;348870;28;927;-75
2023/05/04 00:15:58;;;;;;;335.02;130.80;;;;;;;11.80;100.00;99852.47;346855;28;1547;-76
2023/05/04 00:16:08;;;;;;;335.27;131.20;;;;;;;11.81;100.00;99867.28;345192;28;844;-76
2023/05/04 00:16:18;;;;;;;334.90;131.13;;;;;;;11.76;100.00;99859.56;346367;28;1009;-75
2023/05/04 00:16:29;;;;;;;336.07;130.57;;;;;;;11.75;100.00;99860.47;344524;28;1289;-75
2023/05/04 00:16:39;;;;;;;337.27;130.03;;;;;;;11.69;100.00;99850.28;346075;28;1380;-76
2023/05/04 00:16:50;;;;;;;338.73;131.88;;;;;;;11.69;100.00;99849.44;345613;28;1382;-76
2023/05/04 00:17:03;;;;;;;339.10;131.40;;;;;;;11.70;100.00;99853.75;340732;28;1248;-76
2023/05/04 00:17:14;;;;;;;336.60;130.63;;;;;;;11.68;100.00;99864.31;344065;28;1434;-75
2023/05/04 00:17:24;;;;;;;340.20;130.33;;;;;;;11.70;100.00;99861.63;344824;28;860;-75
2023/05/04 00:17:34;;;;;;;339.70;130.27;;;;;;;11.68;100.00;99859.06;342770;28;1431;-76
2023/05/04 00:17:45;;;;;;;339.97;129.60;;;;;;;11.59;100.00;99852.41;343249;28;1442;-76
2023/05/04 00:17:56;;;;;;;338.38;130.43;;;;;;;11.66;100.00;99851.25;343503;28;1249;-76
2023/05/04 00:18:06;;;;;;;340.08;130.63;;;;;;;11.74;100.00;99860.53;342168;28;1251;-75
2023/05/04 00:18:16;;;;;;;341.10;131.33;;;;;;;11.72;100.00;99857.13;340106;29;1063;-76
2023/05/04 00:18:27;;;;;;;341.25;130.90;;;;;;;11.77;100.00;99855.22;340915;28;1228;-76
2023/05/04 00:18:38;;;;;;;341.13;131.57;;;;;;;11.79;100.00;99856.00;342085;28;1473;-76
2023/05/04 00:18:48;;;;;;;341.55;132.32;;;;;;;11.80;100.00;99861.19;343689;28;1036;-76
2023/05/04 00:18:58;;;;;;;338.33;133.40;;;;;;;11.84;100.00;99861.91;343752;28;1615;-75
2023/05/04 00:19:09;;;;;;;333.05;130.60;;;;;;;11.83;100.00;99857.56;347403;28;922;-76
2023/05/04 00:19:19;;;;;;;331.67;129.70;;;;;;;11.84;100.00;99861.91;344792;28;880;-76
2023/05/04 00:19:30;;;;;;;334.48;130.43;;;;;;;11.86;100.00;99862.69;343947;28;1390;-76
2023/05/04 00:19:41;;;;;;;338.80;133.67;;;;;;;11.87;100.00;99869.66;343347;28;1198;-76
2023/05/04 00:19:52;;;;;;;339.13;133.93;;;;;;;11.82;100.00;99861.97;343346;28;904;-77
2023/05/04 00:20:02;;;;;;;337.47;132.93;;;;;;;11.80;100.00;99860.31;343827;28;1321;-76
2023/05/04 00:20:13;;;;;;;338.15;131.63;;;;;;;11.73;100.00;99866.69;345371;28;1382;-76
2023/05/04 00:20:23;;;;;;;340.30;130.67;;;;;;;11.65;100.00;99862.66;344822;28;816;-77
2023/05/04 00:20:34;;;;;;;337.50;128.20;;;;;;;11.64;100.00;99860.94;347203;28;1409;-76
2023/05/04 00:20:45;;;;;;;337.60;129.07;;;;;;;11.64;100.00;99868.81;343106;28;1605;-76
2023/05/04 00:20:55;;;;;;;337.52;129.85;;;;;;;11.61;100.00;99866.31;342946;28;1966;-76
2023/05/04 00:21:05;;;;;;;335.40;128.68;;;;;;;11.56;100.00;99872.66;338217;29;822;-76
2023/05/04 00:21:16;;;;;;;333.07;128.43;;;;;;;11.50;100.00;99860.66;341092;28;1369;-76
2023/05/04 00:21:26;;;;;;;333.75;126.85;;;;;;;11.55;100.00;99863.94;341483;28;1200;-76
2023/05/04 00:21:37;;;;;;;335.10;128.80;;;;;;;11.57;100.00;99864.75;342033;28;1448;-76
2023/05/04 00:21:47;;;;;;;336.55;128.73;;;;;;;11.61;100.00;99857.59;340923;28;1048;-76
2023/05/04 00:21:57;;;;;;;339.17;131.03;;;;;;;11.66;100.00;99860.88;341986;28;1471;-76
2023/05/04 00:22:08;;;;;;;342.60;131.73;;;;;;;11.72;100.00;99870.25;343402;28;1367;-76
2023/05/04 00:22:18;;;;;;;341.25;131.57;;;;;;;11.71;100.00;99860.66;341748;28;1618;-76
2023/05/04 00:22:29;;;;;;;340.60;131.83;;;;;;;11.69;100.00;99855.53;340106;28;1788;-76
2023/05/04 00:22:39;;;;;;;338.48;130.43;;;;;;;11.70;100.00;99861.63;340505;29;1397;-76
2023/05/04 00:22:50;;;;;;;340.60;131.60;;;;;;;11.62;100.00;99864.56;335576;29;1532;-76
2023/05/04 00:23:00;;;;;;;340.35;130.07;;;;;;;11.60;100.00;99855.91;333233;29;1410;-76
2023/05/04 00:23:10;;;;;;;338.43;128.63;;;;;;;11.61;100.00;99865.47;331531;29;1181;-76
2023/05/04 00:23:21;;;;;;;338.63;127.60;;;;;;;11.62;100.00;99870.66;331867;29;1584;-76
2023/05/04 00:23:31;;;;;;;334.70;126.90;;;;;;;11.54;100.00;99862.25;331713;29;863;-76
2023/05/04 00:23:42;;;;;;;338.02;128.15;;;;;;;11.56;100.00;99868.28;330406;29;990;-77
2023/05/04 00:23:52;;;;;;;337.50;126.77;;;;;;;11.57;100.00;99867.34;330367;29;1376;-76
2023/05/04 00:24:03;;;;;;;340.80;128.03;;;;;;;11.59;100.00;99864.69;331311;29;2081;-76
2023/05/04 00:24:13;;;;;;;338.02;127.88;;;;;;;11.65;100.00;99859.19;331042;29;2115;-76
2023/05/04 00:24:23;;;;;;;339.45;129.48;;;;;;;11.72;100.00;99870.25;327699;30;1600;-75
2023/05/04 00:24:34;;;;;;;335.07;129.60;;;;;;;11.71;100.00;99866.75;328465;30;2116;-76
2023/05/04 00:24:44;;;;;;;337.93;132.50;;;;;;;11.76;100.00;99859.56;327695;29;2257;-76
2023/05/04 00:24:55;;;;;;;337.17;132.48;;;;;;;11.78;100.00;99862.16;329126;29;2145;-75
2023/05/04 00:25:06;;;;;;;338.93;131.87;;;;;;;11.83;100.00;99863.66;327962;30;862;-75
2023/05/04 00:25:16;;;;;;;340.05;130.82;;;;;;;11.85;100.00;99869.72;323495;30;2045;-76
2023/05/04 00:25:27;;;;;;;342.37;132.10;;;;;;;11.82;100.00;99864.59;321401;30;1254;-76
2023/05/04 00:25:37;;;;;;;338.30;131.20;;;;;;;11.78;100.00;99870.88;323317;30;856;-76
2023/05/04 00:25:48;;;;;;;334.45;130.15;;;;;;;11.77;100.00;99869.16;322098;30;1497;-75
2023/05/04 00:25:58;;;;;;;334.53;130.57;;;;;;;11.81;100.00;99864.66;324150;30;1860;-76
2023/05/04 00:26:09;;;;;;;336.45;131.90;;;;;;;11.81;100.00;99872.53;323260;30;943;-76
2023/05/04 00:26:19;;;;;;;338.10;132.77;;;;;;;11.84;100.00;99870.63;316072;30;2315;-76
2023/05/04 00:26:30;;;;;;;337.40;130.40;;;;;;;11.85;100.00;99872.31;314421;30;3375;-76
2023/05/04 00:26:40;;;;;;;340.15;129.27;;;;;;;11.83;100.00;99871.53;316728;30;3114;-76
2023/05/04 00:26:51;;;;;;;339.57;128.27;;;;;;;11.80;100.00;99873.44;319758;30;798;-76
2023/05/04 00:27:01;;;;;;;342.27;131.68;;;;;;;11.76;100.00;99872.69;319270;30;3297;-76
2023/05/04 00:27:11;;;;;;;338.87;133.50;;;;;;;11.73;100.00;99869.31;317207;30;3149;-76
2023/05/04 00:27:22;;;;;;;338.17;134.23;;;;;;;11.70;100.00;99865.06;319637;30;1204;-76
2023/05/04 00:27:34;;;;;;;336.57;130.87;;;;;;;11.74;100.00;99873.66;316181;31;3161;-76
2023/05/04 00:27:44;;;;;;;337.00;129.63;;;;;;;11.74;100.00;99871.03;316791;31;1957;-75
2023/05/04 00:27:54;;;;;;;337.23;130.20;;;;;;;11.74;100.00;99866.63;316713;31;1231;-76
2023/05/04 00:28:05;;;;;;;340.25;133.82;;;;;;;11.78;100.00;99876.13;308475;32;859;-75
2023/05/04 00:28:15;;;;;;;341.97;135.97;;;;;;;11.81;100.00;99869.91;309506;31;2416;-76
2023/05/04 00:28:26;;;;;;;343.02;135.68;;;;;;;11.84;100.00;99869.78;309735;31;3685;-75
2023/05/04 00:28:36;;;;;;;340.20;133.23;;;;;;;11.81;100.00;99859.41;307447;32;892;-75
2023/05/04 00:28:47;;;;;;;342.27;135.77;;;;;;;11.79;100.00;99861.25;307888;31;4155;-75
2023/05/04 00:28:57;;;;;;;342.17;136.67;;;;;;;11.81;100.00;99862.03;305369;32;4473;-75
2023/05/04 00:29:08;;;;;;;345.27;138.43;;;;;;;11.76;100.00;99862.19;302720;32;1614;-75
2023/05/04 00:29:18;;;;;;;344.70;137.33;;;;;;;11.79;100.00;99866.50;298209;32;4495;-76
2023/05/04 00:29:29;;;;;;;342.48;134.38;;;;;;;11.82;100.00;99868.97;298494;32;4986;-76
2023/05/04 00:29:39;;;;;;;341.67;135.60;;;;;;;11.84;100.00;99869.78;298459;33;1219;-75
2023/05/04 00:29:50;;;;;;;338.50;135.03;;;;;;;11.85;100.00;99864.47;296203;33;4586;-76
2023/05/04 00:30:00;;;;;;;338.20;135.07;;;;;;;11.88;100.00;99866.97;290466;33;2901;-76
2023/05/04 00:30:11;;;;;;;336.80;132.75;;;;;;;11.90;100.00;99864.28;288476;33;3283;-76
2023/05/04 00:30:21;;;;;;;336.23;132.27;;;;;;;11.93;100.00;99869.38;290988;34;1349;-76
2023/05/04 00:30:32;;;;;;;334.30;133.30;;;;;;;11.96;100.00;99874.50;288081;34;4426;-76
2023/05/04 00:30:42;;;;;;;338.73;135.38;;;;;;;11.97;100.00;99868.34;286302;34;6031;-76
2023/05/04 00:30:53;;;;;;;342.47;135.93;;;;;;;11.93;100.00;99870.25;286420;34;872;-76
2023/05/04 00:31:03;;;;;;;343.25;136.13;;;;;;;11.95;100.00;99870.19;286576;33;6358;-76
2023/05/04 00:31:14;;;;;;;338.40;133.90;;;;;;;11.93;100.00;99859.75;284282;34;6626;-75
2023/05/04 00:31:24;;;;;;;336.38;134.57;;;;;;;11.91;100.00;99863.34;283528;34;1256;-75
2023/05/04 00:31:35;;;;;;;337.43;133.80;;;;;;;11.94;100.00;99865.84;282211;34;6199;-75
2023/05/04 00:31:45;;;;;;;343.33;135.15;;;;;;;11.92;100.00;99857.19;283131;34;6918;-75
2023/05/04 00:31:56;;;;;;;343.33;134.13;;;;;;;11.93;100.00;99867.63;282406;34;7274;-75
2023/05/04 00:32:06;;;;;;;342.07;133.63;;;;;;;11.90;100.00;99866.91;283594;34;777;-75
2023/05/04 00:32:16;;;;;;;336.90;132.43;;;;;;;11.87;100.00;99867.03;280450;34;4332;-76
2023/05/04 00:32:27;;;;;;;335.63;132.40;;;;;;;11.82;100.00;99866.34;276373;35;5450;-76
2023/05/04 00:32:37;;;;;;;336.37;133.97;;;;;;;11.77;100.00;99870.94;277231;35;842;-76
2023/05/04 00:32:48;;;;;;;335.20;132.30;;;;;;;11.72;100.00;99870.25;271475;35;7207;-75
2023/05/04 00:35:02;;;;;;;328.80;123.54;;;;;;;11.56;100.00;99860.41;2497423;27;20592;-76
2023/05/04 00:35:13;;;;;;;333.10;124.73;;;;;;;11.57;100.00;99856.88;352879;28;962;-76
2023/05/04 00:35:24;;;;;;;333.83;126.78;;;;;;;11.62;100.00;99854.91;348828;28;1210;-76
2023/05/04 00:35:34;;;;;;;334.20;128.55;;;;;;;11.63;100.00;99856.63;347616;28;793;-76
2023/05/04 00:35:44;;;;;;;333.53;128.53;;;;;;;11.69;100.00;99855.53;347461;28;1180;-76
2023/05/04 00:35:55;;;;;;;333.02;126.20;;;;;;;11.71;100.00;99853.66;350107;28;1368;-76
2023/05/04 00:36:06;;;;;;;334.63;126.77;;;;;;;11.73;100.00;99866.69;350821;28;1278;-75
2023/05/04 00:36:16;;;;;;;335.80;125.93;;;;;;;11.71;100.00;99858.91;346452;28;1492;-75
2023/05/04 00:36:26;;;;;;;338.60;127.50;;;;;;;11.64;100.00;99857.47;348108;28;1428;-75
2023/05/04 00:36:37;;;;;;;336.92;127.25;;;;;;;11.63;100.00;99856.63;346067;28;1215;-76
2023/05/04 00:36:47;;;;;;;336.17;128.20;;;;;;;11.64;100.00;99853.09;347517;28;1199;-76
2023/05/04 00:36:57;;;;;;;334.15;129.05;;;;;;;11.70;100.00;99856.38;347250;28;1856;-75
2023/05/04 00:37:08;;;;;;;336.83;129.53;;;;;;;11.70;100.00;99851.94;347349;28;855;-75
2023/05/04 00:37:18;;;;;;;337.67;131.60;;;;;;;11.75;100.00;99857.00;348839;28;856;-76
2023/05/04 00:37:29;;;;;;;334.42;130.00;;;;;;;11.73;100.00;99856.22;347495;28;1224;-76
2023/05/04 00:37:39;;;;;;;331.60;130.47;;;;;;;11.72;100.00;99854.50;347395;28;1310;-75
2023/05/04 00:37:50;;;;;;;331.98;130.07;;;;;;;11.71;100.00;99855.44;346010;28;1323;-76
2023/05/04 00:38:02;;;;;;;334.50;130.97;;;;;;;11.76;100.00;99856.94;347045;28;1145;-76
2023/05/04 00:38:12;;;;;;;338.08;130.00;;;;;;;11.81;100.00;99859.41;344836;28;1665;-76
2023/05/04 00:38:23;;;;;;;336.70;128.83;;;;;;;11.84;100.00;99864.53;346172;28;995;-76
2023/05/04 00:38:49;;;;;;;338.00;129.87;;;;;;;11.89;100.00;99859.94;346230;28;935;-76
2023/05/04 00:38:59;;;;;;;335.52;129.65;;;;;;;11.90;100.00;99856.41;349684;28;1050;-76
2023/05/04 00:39:10;;;;;;;331.67;130.17;;;;;;;11.91;100.00;99852.88;346475;28;1830;-76
2023/05/04 00:39:20;;;;;;;332.65;131.13;;;;;;;11.95;100.00;99859.69;343305;28;1384;-76
2023/05/04 00:39:33;;;;;;;334.83;132.07;;;;;;;11.94;100.00;99858.84;345971;28;1029;-76
2023/05/04 00:39:44;;;;;;;336.90;129.25;;;;;;;11.89;100.00;99858.16;344791;28;911;-76
2023/05/04 00:39:54;;;;;;;336.87;126.50;;;;;;;11.81;100.00;99856.78;344415;28;1607;-76
2023/05/04 00:40:05;;;;;;;331.73;125.53;;;;;;;11.78;100.00;99849.03;343401;28;1411;-76
2023/05/04 00:40:16;;;;;;;333.08;127.80;;;;;;;11.80;100.00;99857.69;344028;28;1134;-76
2023/05/04 00:40:26;;;;;;;335.47;128.93;;;;;;;11.81;100.00;99856.78;346095;28;1195;-76
2023/05/04 00:40:36;;;;;;;336.60;130.93;;;;;;;11.84;100.00;99851.41;350186;28;1003;-76
2023/05/04 00:40:47;;;;;;;335.30;130.18;;;;;;;11.86;100.00;99852.19;347418;28;1338;-76
2023/05/04 00:40:58;;;;;;;332.77;128.98;;;;;;;11.87;100.00;99848.66;341117;28;1220;-76
2023/05/04 00:41:09;;;;;;;332.30;128.50;;;;;;;11.89;100.00;99852.94;343593;28;969;-76
2023/05/04 00:41:20;;;;;;;332.60;130.80;;;;;;;11.90;100.00;99848.53;343642;28;1143;-76
2023/05/04 00:41:30;;;;;;;334.15;131.35;;;;;;;11.89;100.00;99855.56;344416;28;1315;-76
2023/05/04 00:41:40;;;;;;;335.70;132.38;;;;;;;11.90;100.00;99848.53;344567;28;1381;-76
2023/05/04 00:41:51;;;;;;;336.73;132.77;;;;;;;11.91;100.00;99856.34;340797;29;1197;-76
2023/05/04 00:42:02;;;;;;;334.70;132.85;;;;;;;11.82;100.00;99851.47;339292;29;861;-76
2023/05/04 00:42:12;;;;;;;336.90;132.90;;;;;;;11.76;100.00;99850.84;342028;28;1422;-76
2023/05/04 00:42:22;;;;;;;334.60;130.73;;;;;;;11.74;100.00;99847.44;340871;28;933;-76
2023/05/04 00:42:33;;;;;;;334.07;130.43;;;;;;;11.73;100.00;99850.97;342920;28;931;-76
2023/05/04 00:42:43;;;;;;;333.10;130.65;;;;;;;11.71;100.00;99837.06;340286;29;1082;-75
2023/05/04 00:42:53;;;;;;;334.07;132.30;;;;;;;11.74;100.00;99860.53;339942;28;1372;-75
2023/05/04 00:43:04;;;;;;;335.27;130.33;;;;;;;11.65;100.00;99844.31;343412;28;1490;-77
2023/05/04 00:43:14;;;;;;;332.45;128.43;;;;;;;11.68;100.00;99837.22;341128;28;1391;-77
2023/05/04 00:43:25;;;;;;;333.00;126.53;;;;;;;11.60;100.00;99851.50;338715;29;1362;-76
2023/05/04 00:43:35;;;;;;;335.15;129.48;;;;;;;11.60;100.00;99851.50;335509;29;857;-76
2023/05/04 00:43:46;;;;;;;333.00;128.32;;;;;;;11.62;100.00;99844.44;338044;29;1663;-76
2023/05/04 00:43:58;;;;;;;334.53;127.67;;;;;;;11.63;100.00;99846.13;338612;29;1915;-76
2023/05/04 00:44:08;;;;;;;332.00;123.63;;;;;;;11.67;100.00;99846.88;339521;29;999;-76
2023/05/04 00:44:22;;;;;;;330.30;123.47;;;;;;;11.65;100.00;99849.56;335541;29;1429;-76
2023/05/04 00:44:33;;;;;;;328.25;124.57;;;;;;;11.59;100.00;99851.56;334304;29;973;-77
2023/05/04 00:44:44;;;;;;;330.75;125.20;;;;;;;11.62;100.00;99848.81;331814;29;1312;-77
2023/05/04 00:44:54;;;;;;;333.42;126.30;;;;;;;11.64;100.00;99849.63;331320;29;1535;-76
2023/05/04 00:45:05;;;;;;;335.23;129.30;;;;;;;11.64;100.00;99853.09;333774;29;1720;-76
2023/05/04 00:45:15;;;;;;;334.80;129.82;;;;;;;11.70;100.00;99854.56;332405;29;2118;-76
2023/05/04 00:45:26;;;;;;;332.17;129.43;;;;;;;11.72;100.00;99854.50;330635;29;2023;-76
2023/05/04 00:45:36;;;;;;;333.03;129.03;;;;;;;11.74;100.00;99852.69;331796;29;987;-76
2023/05/04 00:45:47;;;;;;;332.45;127.53;;;;;;;11.73;100.00;99850.97;322693;30;1346;-76
2023/05/04 00:45:57;;;;;;;333.30;127.80;;;;;;;11.69;100.00;99850.28;326137;30;2220;-76
2023/05/04 00:46:09;;;;;;;336.08;128.90;;;;;;;11.70;100.00;99848.50;326435;30;1725;-76
2023/05/04 00:46:19;;;;;;;333.13;128.13;;;;;;;11.68;100.00;99845.94;322428;30;1395;-77
2023/05/04 00:46:30;;;;;;;332.80;126.80;;;;;;;11.72;100.00;99849.28;323912;30;929;-77
2023/05/04 00:46:40;;;;;;;330.60;125.75;;;;;;;11.73;100.00;99850.97;324886;30;1560;-76
2023/05/04 00:46:51;;;;;;;334.10;127.87;;;;;;;11.71;100.00;99852.81;325528;30;1601;-78
2023/05/04 00:47:02;;;;;;;333.48;127.00;;;;;;;11.68;100.00;99858.22;318509;30;1324;-77
2023/05/04 00:47:14;;;;;;;333.30;126.55;;;;;;;11.61;100.00;99852.34;320572;30;2165;-76
2023/05/04 00:47:25;;;;;;;330.98;125.18;;;;;;;11.57;100.00;99859.50;318934;30;2340;-76
2023/05/04 00:47:35;;;;;;;331.38;127.50;;;;;;;11.59;100.00;99848.94;318663;30;1601;-76
2023/05/04 00:47:47;;;;;;;335.60;129.83;;;;;;;11.64;100.00;99850.47;324889;30;2527;-76
2023/05/04 00:47:57;;;;;;;336.83;130.82;;;;;;;11.61;100.00;99853.22;321512;30;2484;-76
2023/05/04 00:48:08;;;;;;;336.38;128.63;;;;;;;11.55;100.00;99848.22;319799;30;2721;-76
2023/05/04 00:48:19;;;;;;;334.20;127.65;;;;;;;11.60;100.00;99850.66;319490;30;1597;-76
2023/05/04 00:48:30;;;;;;;338.43;126.90;;;;;;;11.60;100.00;99856.75;319281;30;1942;-76
2023/05/04 00:48:40;;;;;;;337.20;126.55;;;;;;;11.60;100.00;99855.91;318658;30;1333;-76
2023/05/04 00:48:51;;;;;;;334.08;126.35;;;;;;;11.58;100.00;99855.97;316192;31;1365;-76
2023/05/04 00:49:01;;;;;;;331.30;127.87;;;;;;;11.57;100.00;99856.88;318039;31;2283;-76
2023/05/04 00:49:12;;;;;;;329.80;127.00;;;;;;;11.53;100.00;99855.28;315776;31;2571;-76
2023/05/04 00:49:23;;;;;;;331.57;128.17;;;;;;;11.52;100.00;99853.59;312439;31;2842;-76
2023/05/04 00:49:33;;;;;;;333.00;130.18;;;;;;;11.54;100.00;99848.28;311800;31;874;-77
2023/05/04 00:49:44;;;;;;;334.23;131.25;;;;;;;11.59;100.00;99854.19;311692;31;3398;-76
2023/05/04 00:49:54;;;;;;;331.37;129.60;;;;;;;11.62;100.00;99847.06;313085;31;3592;-76
2023/05/04 00:50:05;;;;;;;329.65;126.78;;;;;;;11.64;100.00;99853.09;311640;31;1575;-76
2023/05/04 00:50:16;;;;;;;331.73;127.18;;;;;;;11.65;100.00;99846.06;314307;31;3307;-76
2023/05/04 00:50:26;;;;;;;331.40;126.03;;;;;;;11.65;100.00;99853.94;314288;31;3201;-76
2023/05/04 00:50:37;;;;;;;331.05;127.05;;;;;;;11.63;100.00;99846.13;313667;31;2524;-76
2023/05/04 00:50:47;;;;;;;329.80;126.63;;;;;;;11.65;100.00;99848.69;313946;31;1194;-76
2023/05/04 00:50:57;;;;;;;331.73;127.60;;;;;;;11.63;100.00;99840.03;310600;31;2657;-76
2023/05/04 00:51:10;;;;;;;330.57;125.87;;;;;;;11.60;100.00;99846.25;307222;31;2762;-76
2023/05/04 00:51:22;;;;;;;328.77;125.35;;;;;;;11.62;100.00;99846.19;308669;32;919;-76
2023/05/04 00:51:32;;;;;;;329.17;125.85;;;;;;;11.63;100.00;99840.03;306384;32;1458;-76
2023/05/04 00:51:43;;;;;;;331.17;127.77;;;;;;;11.59;100.00;99844.56;303865;32;4137;-76
2023/05/04 00:51:54;;;;;;;334.02;128.38;;;;;;;11.64;100.00;99842.59;301577;32;4925;-76
2023/05/04 00:52:04;;;;;;;333.67;126.72;;;;;;;11.64;100.00;99852.22;299018;33;1424;-76